DEKBS EDFM-EDFM
Flight info
| Callsign | DEKBS |
|---|---|
| Flight time | 0h 7m |
| Altitude | |
| Route | |
| Aircraft | C172 |
Departure
| Time | 2026-04-27 14:47 |
|---|---|
| Airport | Mannheim-City Airport (EDFM) |
Arrival
| Time | 2026-04-27 14:54 |
|---|---|
| Airport | Mannheim-City Airport (EDFM) |
| Time | Latitude | Longitude | Altitude | Speed | Heading |
|---|---|---|---|---|---|
| 2026-04-27 14:38 | 49.47511 | 8.52051 | 312 ft | 0 kts | 175° |
| 2026-04-27 14:39 | 49.47501 | 8.52056 | 311 ft | 4 kts | 150° |
| 2026-04-27 14:39 | 49.47494 | 8.52063 | 311 ft | 0 kts | 140° |
| 2026-04-27 14:40 | 49.47481 | 8.52093 | 312 ft | 0 kts | 124° |
| 2026-04-27 14:41 | 49.47465 | 8.52124 | 312 ft | 2 kts | 157° |
| 2026-04-27 14:42 | 49.47435 | 8.52160 | 312 ft | 0 kts | 160° |
| 2026-04-27 14:44 | 49.47347 | 8.52157 | 310 ft | 11 kts | 183° |
| 2026-04-27 14:44 | 49.47335 | 8.52156 | 310 ft | 0 kts | 183° |
| 2026-04-27 14:45 | 49.47301 | 8.52154 | 310 ft | 14 kts | 180° |
| 2026-04-27 14:45 | 49.47247 | 8.52116 | 310 ft | 9 kts | 263° |
| 2026-04-27 14:45 | 49.47248 | 8.52097 | 310 ft | 0 kts | 275° |
| 2026-04-27 14:46 | 49.47258 | 8.51826 | 309 ft | 53 kts | 274° |
| 2026-04-27 14:46 | 49.47257 | 8.51166 | 431 ft | 68 kts | 271° |
| 2026-04-27 14:46 | 49.47250 | 8.50371 | 581 ft | 79 kts | 266° |
| 2026-04-27 14:47 | 49.47111 | 8.49585 | 819 ft | 77 kts | 223° |
| 2026-04-27 14:47 | 49.46571 | 8.49319 | 1024 ft | 80 kts | 188° |
| 2026-04-27 14:47 | 49.45998 | 8.49224 | 1192 ft | 82 kts | 184° |
| 2026-04-27 14:47 | 49.45440 | 8.49198 | 1209 ft | 84 kts | 169° |
| 2026-04-27 14:48 | 49.45095 | 8.49774 | 1296 ft | 78 kts | 92° |
| 2026-04-27 14:48 | 49.45174 | 8.51584 | 1314 ft | 94 kts | 86° |
| 2026-04-27 14:48 | 49.45187 | 8.52515 | 1451 ft | 84 kts | 80° |
| 2026-04-27 14:49 | 49.45250 | 8.53431 | 1473 ft | 91 kts | 84° |
| 2026-04-27 14:49 | 49.45496 | 8.54296 | 1435 ft | 90 kts | 31° |
| 2026-04-27 14:49 | 49.46072 | 8.54529 | 1284 ft | 85 kts | 9° |
| 2026-04-27 14:49 | 49.46585 | 8.54627 | 1203 ft | 62 kts | 4° |
| 2026-04-27 14:50 | 49.47004 | 8.54521 | 1065 ft | 64 kts | 330° |
| 2026-04-27 14:50 | 49.47228 | 8.53940 | 885 ft | 68 kts | 271° |
| 2026-04-27 14:50 | 49.47193 | 8.53240 | 669 ft | 64 kts | 274° |
| 2026-04-27 14:50 | 49.47222 | 8.52598 | 476 ft | 59 kts | 277° |
| 2026-04-27 14:51 | 49.47247 | 8.52004 | 335 ft | 53 kts | 272° |
| 2026-04-27 14:51 | 49.47268 | 8.51469 | 309 ft | 56 kts | 274° |
| 2026-04-27 14:51 | 49.47299 | 8.50731 | 427 ft | 75 kts | 271° |
| 2026-04-27 14:51 | 49.47282 | 8.49898 | 635 ft | 77 kts | 261° |
| 2026-04-27 14:52 | 49.47098 | 8.49171 | 828 ft | 82 kts | 241° |
| 2026-04-27 14:52 | 49.46592 | 8.48890 | 844 ft | 100 kts | 158° |
| 2026-04-27 14:52 | 49.46120 | 8.49497 | 1029 ft | 96 kts | 101° |
| 2026-04-27 14:52 | 49.46005 | 8.50524 | 1118 ft | 103 kts | 93° |
| 2026-04-27 14:53 | 49.45978 | 8.51664 | 1208 ft | 106 kts | 82° |
| 2026-04-27 14:53 | 49.46022 | 8.52658 | 1147 ft | 82 kts | 88° |
| 2026-04-27 14:53 | 49.46195 | 8.53251 | 1170 ft | 66 kts | 5° |
| 2026-04-27 14:53 | 49.46631 | 8.53271 | 1028 ft | 65 kts | 1° |
| 2026-04-27 14:54 | 49.47101 | 8.53140 | 716 ft | 73 kts | 335° |
| 2026-04-27 14:54 | 49.47247 | 8.52487 | 484 ft | 67 kts | 270° |
| 2026-04-27 14:54 | 49.47256 | 8.51798 | 322 ft | 61 kts | 274° |
| 2026-04-27 14:54 | 49.47275 | 8.51323 | 309 ft | 29 kts | 276° |
| 2026-04-27 14:55 | 49.47285 | 8.51057 | 308 ft | 20 kts | 281° |
| 2026-04-27 14:55 | 49.47247 | 8.50958 | 308 ft | 0 kts | 162° |